Time;durP1;ratioP1;P1;durP2;ratioP2;P2;SDS_P1;SDS_P2;PMS_P1;PMS_P2;Temp;Humidity;BMP_temperature;BMP_pressure;BME280_temperature;BME280_humidity;BME280_pressure;Samples;Min_cycle;Max_cycle;Signal;HPM_P1;HPM_P2
2022/03/02 00:01:16;;;;;;;8.48;5.70;;;21.80;54.30;;;;;;5015492;28;20043;-71
2022/03/02 00:03:42;;;;;;;6.45;5.07;;;21.80;54.20;;;;;;5003575;28;20111;-71
2022/03/02 00:06:09;;;;;;;10.02;5.60;;;21.90;54.20;;;;;;5003222;28;20046;-70
2022/03/02 00:08:36;;;;;;;8.23;5.22;;;21.90;54.20;;;;;;5002994;28;20049;-71
2022/03/02 00:11:04;;;;;;;8.80;5.80;;;21.90;53.90;;;;;;5003401;28;20039;-71
2022/03/02 00:13:30;;;;;;;7.80;5.65;;;22.00;53.90;;;;;;5002201;28;20066;-70
2022/03/02 00:15:56;;;;;;;8.48;5.30;;;21.90;53.60;;;;;;5004383;28;20053;-71
2022/03/02 00:18:22;;;;;;;7.65;4.88;;;21.90;53.80;;;;;;5003522;28;20065;-71
2022/03/02 00:20:49;;;;;;;7.68;5.20;;;21.90;53.70;;;;;;5004294;28;20047;-71
2022/03/02 00:23:15;;;;;;;8.80;5.45;;;21.90;53.60;;;;;;5003437;28;20054;-71
2022/03/02 00:25:41;;;;;;;8.57;5.65;;;22.00;53.60;;;;;;4999381;28;20050;-71
2022/03/02 00:28:07;;;;;;;9.10;5.93;;;21.80;53.50;;;;;;4998499;28;20058;-71
2022/03/02 00:30:34;;;;;;;7.80;5.53;;;21.90;53.70;;;;;;4998948;28;20061;-71
2022/03/02 00:33:00;;;;;;;9.32;5.75;;;21.70;53.70;;;;;;5004671;28;20034;-71
2022/03/02 00:35:27;;;;;;;8.73;5.40;;;21.60;53.70;;;;;;5018955;28;20038;-71
2022/03/02 00:37:53;;;;;;;9.43;5.63;;;21.60;53.90;;;;;;5019065;28;20066;-71
2022/03/02 00:40:20;;;;;;;8.13;5.25;;;21.50;53.90;;;;;;5018845;28;20042;-70
2022/03/02 00:42:46;;;;;;;10.23;6.88;;;21.60;53.90;;;;;;4999153;28;20057;-71
2022/03/02 00:45:12;;;;;;;8.95;5.60;;;21.50;53.80;;;;;;5000308;28;20070;-71
2022/03/02 00:47:39;;;;;;;9.32;5.45;;;21.60;53.90;;;;;;4998102;28;20050;-70
2022/03/02 00:50:07;;;;;;;8.15;5.57;;;21.60;53.80;;;;;;4998044;28;20043;-71
2022/03/02 00:52:34;;;;;;;9.52;5.03;;;21.60;53.70;;;;;;4998414;28;20034;-71
2022/03/02 00:55:00;;;;;;;10.02;5.68;;;21.60;54.10;;;;;;5012745;28;20038;-71
2022/03/02 00:57:26;;;;;;;11.02;6.53;;;21.50;54.00;;;;;;5017624;28;20061;-71
2022/03/02 00:59:52;;;;;;;8.82;5.85;;;21.50;54.00;;;;;;5000915;28;20098;-71
2022/03/02 01:02:18;;;;;;;7.38;4.55;;;21.40;53.90;;;;;;5018141;28;20474;-70
2022/03/02 01:04:44;;;;;;;7.93;5.20;;;21.30;54.20;;;;;;5019218;28;20092;-71
2022/03/02 01:07:10;;;;;;;7.63;5.07;;;21.40;53.60;;;;;;5010627;28;20110;-71
2022/03/02 01:09:36;;;;;;;6.85;5.40;;;21.40;53.90;;;;;;5000278;28;20042;-71
2022/03/02 01:12:03;;;;;;;9.68;6.22;;;21.30;53.90;;;;;;4999461;28;20050;-71
2022/03/02 01:14:30;;;;;;;7.57;5.10;;;21.30;53.90;;;;;;4999605;28;20045;-71
2022/03/02 01:16:56;;;;;;;9.25;5.72;;;21.40;53.90;;;;;;5012329;28;20775;-71
2022/03/02 01:19:22;;;;;;;10.07;5.68;;;21.40;53.70;;;;;;5018833;28;20042;-70
2022/03/02 01:21:48;;;;;;;9.48;5.53;;;21.50;53.80;;;;;;5018766;28;20046;-71
2022/03/02 01:24:14;;;;;;;11.43;6.45;;;21.50;53.70;;;;;;5018254;28;20073;-71
2022/03/02 01:26:40;;;;;;;8.50;5.82;;;21.60;53.50;;;;;;5011998;28;20046;-71
2022/03/02 01:29:06;;;;;;;9.43;5.40;;;21.50;53.50;;;;;;4999241;28;20039;-71
2022/03/02 01:31:33;;;;;;;9.63;4.88;;;21.40;53.40;;;;;;5010386;28;20089;-71
2022/03/02 01:33:59;;;;;;;9.40;5.43;;;21.60;53.40;;;;;;5018014;28;20066;-71
2022/03/02 01:36:25;;;;;;;7.97;5.65;;;21.60;53.40;;;;;;5018468;28;20075;-71
2022/03/02 01:38:52;;;;;;;8.40;5.38;;;21.60;53.20;;;;;;5014772;28;20042;-71
2022/03/02 01:41:22;;;;;;;7.63;5.53;;;21.50;53.30;;;;;;4998571;28;20042;-71
2022/03/02 01:43:50;;;;;;;7.68;4.97;;;21.50;53.20;;;;;;4998858;28;20047;-71
2022/03/02 01:46:17;;;;;;;7.45;4.88;;;21.60;53.10;;;;;;4999616;28;20050;-70
2022/03/02 01:48:45;;;;;;;6.65;5.05;;;21.60;53.00;;;;;;5010782;28;20053;-71
2022/03/02 01:51:12;;;;;;;5.97;4.70;;;21.60;53.00;;;;;;5018263;28;20089;-71
2022/03/02 01:53:39;;;;;;;8.63;5.32;;;21.60;52.90;;;;;;5018188;28;20372;-71
2022/03/02 01:56:06;;;;;;;8.27;5.43;;;21.60;52.80;;;;;;5015723;28;20046;-71
2022/03/02 01:58:32;;;;;;;8.65;6.15;;;21.80;52.70;;;;;;5017955;28;20042;-71
2022/03/02 02:00:59;;;;;;;9.73;6.03;;;21.70;52.70;;;;;;5014487;28;20039;-71
2022/03/02 02:03:26;;;;;;;7.07;5.38;;;21.90;52.70;;;;;;5011365;28;20109;-71
2022/03/02 02:05:52;;;;;;;8.35;5.72;;;21.80;52.50;;;;;;5017837;28;20053;-71
2022/03/02 02:08:18;;;;;;;7.45;5.00;;;22.00;52.50;;;;;;5017823;28;20046;-71
2022/03/02 02:10:45;;;;;;;8.90;5.63;;;21.90;52.40;;;;;;5004736;28;20054;-70
2022/03/02 02:13:11;;;;;;;9.63;6.03;;;21.80;52.30;;;;;;4998971;28;20049;-71
2022/03/02 02:15:37;;;;;;;6.38;4.93;;;21.90;52.30;;;;;;4998338;28;20045;-71
2022/03/02 02:18:04;;;;;;;10.85;5.43;;;21.90;52.20;;;;;;5016253;28;20042;-71
2022/03/02 02:20:36;;;;;;;9.98;5.80;;;21.90;52.20;;;;;;5014069;28;20046;-71
2022/03/02 02:23:03;;;;;;;10.20;5.88;;;21.90;52.30;;;;;;5017895;28;20053;-70
2022/03/02 02:25:29;;;;;;;8.63;5.47;;;21.90;52.00;;;;;;5017606;28;20081;-71
2022/03/02 02:27:55;;;;;;;8.93;5.55;;;21.90;51.90;;;;;;5014291;28;20042;-70
2022/03/02 02:30:23;;;;;;;9.38;6.13;;;22.00;51.80;;;;;;4996823;28;20038;-70
2022/03/02 02:32:49;;;;;;;9.20;5.07;;;22.00;51.90;;;;;;4997911;28;20035;-71
2022/03/02 02:35:15;;;;;;;9.93;6.78;;;22.00;51.80;;;;;;5002392;28;20516;-71
2022/03/02 02:37:41;;;;;;;8.75;5.40;;;22.00;51.80;;;;;;4997900;28;20042;-70
2022/03/02 02:40:11;;;;;;;7.90;5.22;;;22.10;51.90;;;;;;4997755;28;20050;-71
2022/03/02 02:42:39;;;;;;;8.73;5.53;;;22.10;51.70;;;;;;4997831;28;20038;-70
2022/03/02 02:45:06;;;;;;;8.98;5.53;;;21.90;51.60;;;;;;4997976;28;20050;-70
2022/03/02 02:47:32;;;;;;;7.90;5.55;;;22.00;51.70;;;;;;4998994;28;20038;-70
2022/03/02 02:49:58;;;;;;;8.88;4.68;;;22.00;51.80;;;;;;4997404;28;20134;-71
2022/03/02 02:52:24;;;;;;;7.53;5.30;;;21.90;51.70;;;;;;4997603;28;20050;-71
2022/03/02 02:54:50;;;;;;;9.02;5.65;;;22.00;51.80;;;;;;4997635;28;20042;-71
2022/03/02 02:57:17;;;;;;;7.55;5.60;;;22.00;51.70;;;;;;4997661;28;20102;-70
2022/03/02 02:59:43;;;;;;;9.85;5.28;;;22.00;51.50;;;;;;4997720;28;20043;-71
2022/03/02 03:02:09;;;;;;;11.73;5.95;;;22.00;51.60;;;;;;4998433;28;20042;-71
2022/03/02 03:04:35;;;;;;;8.63;5.57;;;22.10;51.50;;;;;;4997738;28;20098;-71
2022/03/02 03:07:01;;;;;;;9.13;5.93;;;22.00;51.40;;;;;;4997561;28;20046;-70
2022/03/02 03:09:27;;;;;;;6.88;4.97;;;22.20;51.40;;;;;;4997349;28;20050;-71
2022/03/02 03:11:54;;;;;;;9.27;5.88;;;22.10;51.40;;;;;;4997359;28;20038;-71
2022/03/02 03:14:20;;;;;;;9.95;6.07;;;22.10;51.40;;;;;;4998946;28;20038;-71
2022/03/02 03:16:46;;;;;;;10.82;6.55;;;22.00;51.30;;;;;;5001914;28;20039;-71
2022/03/02 03:19:12;;;;;;;8.63;6.30;;;22.00;51.30;;;;;;5008254;28;20038;-71
2022/03/02 03:21:39;;;;;;;7.10;5.32;;;22.00;51.40;;;;;;4997418;28;20110;-71
2022/03/02 03:24:05;;;;;;;10.85;6.55;;;22.00;51.50;;;;;;4997096;28;20102;-71
2022/03/02 03:26:31;;;;;;;8.88;5.38;;;21.90;51.40;;;;;;4997431;28;20118;-71
2022/03/02 03:28:57;;;;;;;10.32;6.18;;;21.80;51.60;;;;;;4997430;28;20046;-70
2022/03/02 03:31:23;;;;;;;11.95;6.45;;;21.80;51.60;;;;;;4997556;28;20038;-71
2022/03/02 03:33:49;;;;;;;10.50;5.82;;;21.90;51.70;;;;;;4997917;28;20043;-71
2022/03/02 03:36:15;;;;;;;79.03;34.45;;;21.80;51.70;;;;;;4997812;28;20063;-71
2022/03/02 03:38:41;;;;;;;6.72;5.18;;;21.80;51.70;;;;;;4997689;28;20074;-70
2022/03/02 03:41:08;;;;;;;9.20;5.70;;;21.80;51.60;;;;;;4997220;28;20054;-70
2022/03/02 03:43:34;;;;;;;7.15;5.25;;;21.80;51.60;;;;;;4997259;28;20122;-70
2022/03/02 03:46:00;;;;;;;6.75;5.03;;;21.80;51.60;;;;;;4997060;28;20050;-70
2022/03/02 03:48:26;;;;;;;9.35;5.28;;;22.00;51.70;;;;;;4998941;28;20039;-71
2022/03/02 03:50:53;;;;;;;9.23;6.40;;;21.80;51.40;;;;;;4997031;28;20039;-71
2022/03/02 03:53:19;;;;;;;9.02;4.55;;;21.80;51.40;;;;;;4997911;28;20043;-71
2022/03/02 03:55:45;;;;;;;11.10;7.28;;;21.80;51.50;;;;;;5016483;28;20038;-71
2022/03/02 03:58:11;;;;;;;6.55;5.15;;;21.90;51.40;;;;;;5008822;28;20103;-71
2022/03/02 04:00:38;;;;;;;14.35;8.63;;;21.90;51.50;;;;;;4998517;28;20063;-71
2022/03/02 04:03:04;;;;;;;6.25;4.90;;;21.90;51.40;;;;;;5001913;28;20042;-71
2022/03/02 04:05:30;;;;;;;8.27;5.60;;;21.80;51.20;;;;;;5000558;28;20039;-71
2022/03/02 04:07:56;;;;;;;9.43;5.93;;;21.90;51.30;;;;;;5000730;28;20079;-71
2022/03/02 04:10:22;;;;;;;9.73;6.20;;;21.70;51.30;;;;;;5000663;28;20038;-71
2022/03/02 04:12:48;;;;;;;11.13;6.05;;;21.70;51.40;;;;;;5000553;28;20102;-71
2022/03/02 04:15:14;;;;;;;9.52;4.95;;;21.60;51.30;;;;;;5000467;28;20039;-71
2022/03/02 04:17:41;;;;;;;10.63;6.28;;;21.60;51.40;;;;;;5002100;28;20046;-70
2022/03/02 04:20:08;;;;;;;7.78;5.32;;;21.60;51.40;;;;;;5000013;28;20126;-71
2022/03/02 04:22:34;;;;;;;8.68;6.30;;;21.50;51.30;;;;;;5001916;28;20035;-70
2022/03/02 04:25:00;;;;;;;11.35;6.57;;;21.60;51.40;;;;;;5000251;28;20050;-70
2022/03/02 04:27:27;;;;;;;9.95;7.00;;;21.50;51.40;;;;;;5000169;28;20078;-70
2022/03/02 04:29:53;;;;;;;9.13;6.03;;;21.60;51.40;;;;;;5000337;28;20095;-70
2022/03/02 04:32:19;;;;;;;9.07;5.60;;;21.60;51.40;;;;;;5006217;28;20046;-71
2022/03/02 04:34:45;;;;;;;10.63;5.95;;;21.60;51.20;;;;;;5019531;28;20050;-71
2022/03/02 04:37:11;;;;;;;10.70;5.55;;;21.70;51.40;;;;;;5019819;28;20045;-71
2022/03/02 04:39:37;;;;;;;8.75;5.47;;;21.80;51.10;;;;;;5018994;28;20047;-70
2022/03/02 04:42:04;;;;;;;8.90;5.53;;;22.00;51.00;;;;;;5019419;28;20042;-70
2022/03/02 04:44:30;;;;;;;8.65;5.40;;;21.90;50.90;;;;;;5018828;28;20053;-70
2022/03/02 04:46:56;;;;;;;10.80;6.32;;;22.00;50.90;;;;;;5016936;28;20042;-70
2022/03/02 04:49:22;;;;;;;8.65;5.97;;;22.00;50.60;;;;;;4999969;28;20047;-71
2022/03/02 04:51:49;;;;;;;10.98;6.50;;;22.00;50.70;;;;;;5000592;28;20073;-70
2022/03/02 04:57:03;;;;;;;13.30;7.50;;;21.70;51.30;;;;;;4999812;28;20053;-71
2022/03/02 04:59:29;;;;;;;14.75;7.53;;;21.60;51.30;;;;;;4999251;28;20091;-70
2022/03/02 05:01:56;;;;;;;13.52;7.03;;;21.60;51.30;;;;;;5015341;28;20037;-71
2022/03/02 05:04:22;;;;;;;16.83;7.82;;;21.50;51.50;;;;;;5015040;28;20050;-71
2022/03/02 05:06:48;;;;;;;11.70;7.35;;;21.50;51.50;;;;;;4999007;28;20070;-70
2022/03/02 05:09:14;;;;;;;12.13;6.47;;;21.40;51.40;;;;;;5016543;28;20038;-70
2022/03/02 05:11:40;;;;;;;12.88;6.93;;;21.40;51.40;;;;;;5018052;28;20057;-70
2022/03/02 05:14:07;;;;;;;11.35;7.40;;;21.30;51.50;;;;;;5010378;28;20069;-70
2022/03/02 05:16:33;;;;;;;10.52;6.53;;;21.20;51.40;;;;;;4998439;28;20136;-71
2022/03/02 05:18:59;;;;;;;14.10;5.65;;;21.20;51.40;;;;;;4999995;28;20043;-70
2022/03/02 05:21:25;;;;;;;11.77;6.85;;;21.20;51.50;;;;;;4998362;28;20062;-70
2022/03/02 05:23:51;;;;;;;13.88;6.68;;;21.30;51.30;;;;;;4999149;28;20044;-71
2022/03/02 05:26:17;;;;;;;12.35;7.07;;;21.30;51.00;;;;;;4998431;28;20058;-71
2022/03/02 05:28:43;;;;;;;9.32;6.03;;;21.60;50.90;;;;;;4999157;28;20046;-70
2022/03/02 05:31:10;;;;;;;10.25;6.95;;;21.50;50.80;;;;;;5010917;28;20038;-70
2022/03/02 05:33:36;;;;;;;11.55;6.20;;;21.60;50.70;;;;;;5017783;28;20049;-70
2022/03/02 05:36:02;;;;;;;8.75;5.35;;;21.50;50.90;;;;;;4998656;28;20102;-70
2022/03/02 05:38:28;;;;;;;11.43;6.38;;;21.60;50.90;;;;;;4999901;28;20038;-70
2022/03/02 05:40:55;;;;;;;7.85;5.55;;;21.60;50.60;;;;;;4998321;28;20046;-70
2022/03/02 05:43:21;;;;;;;11.50;6.50;;;21.60;50.80;;;;;;4998382;28;20047;-70
2022/03/02 05:45:47;;;;;;;9.35;5.53;;;21.60;50.70;;;;;;4998244;28;20038;-70
2022/03/02 05:48:13;;;;;;;10.57;6.03;;;21.70;50.60;;;;;;4998334;28;20043;-70
2022/03/02 05:50:39;;;;;;;9.85;5.32;;;21.60;50.40;;;;;;4998127;28;20079;-71
2022/03/02 05:53:05;;;;;;;9.40;5.88;;;21.80;50.60;;;;;;5011832;28;20034;-70
2022/03/02 05:55:31;;;;;;;9.38;5.95;;;21.60;50.60;;;;;;5017538;28;20038;-71
2022/03/02 05:57:57;;;;;;;9.18;6.03;;;21.60;50.70;;;;;;5000683;28;20045;-70
2022/03/02 06:00:24;;;;;;;10.07;6.63;;;21.60;50.80;;;;;;5014770;28;20049;-71
2022/03/02 06:02:50;;;;;;;11.95;5.38;;;21.60;50.90;;;;;;4999940;28;20042;-70
2022/03/02 06:05:16;;;;;;;9.40;6.32;;;21.60;51.00;;;;;;4997681;28;20057;-70
2022/03/02 06:07:42;;;;;;;10.60;6.30;;;21.40;50.80;;;;;;4996873;28;20053;-70
2022/03/02 06:10:09;;;;;;;13.32;7.35;;;21.50;51.00;;;;;;4997309;28;20042;-70
2022/03/02 06:12:36;;;;;;;10.40;7.60;;;21.50;51.10;;;;;;4994414;28;20126;-70
2022/03/02 06:15:04;;;;;;;11.18;6.80;;;21.60;50.90;;;;;;4997189;28;20042;-70
2022/03/02 06:17:30;;;;;;;9.43;6.35;;;21.60;52.10;;;;;;4997385;28;20058;-70
2022/03/02 06:19:56;;;;;;;7.05;3.92;;;21.60;50.80;;;;;;4996253;28;20050;-70
2022/03/02 06:22:25;;;;;;;7.90;5.32;;;21.60;43.80;;;;;;4998222;28;20110;-70
2022/03/02 06:24:52;;;;;;;4.57;3.10;;;21.60;42.20;;;;;;4996094;28;20094;-70
2022/03/02 06:27:20;;;;;;;6.68;4.25;;;21.60;40.50;;;;;;4996153;28;20051;-71
2022/03/02 06:29:46;;;;;;;8.88;5.78;;;21.70;41.30;;;;;;4995974;28;20046;-70
2022/03/02 06:32:13;;;;;;;4.50;2.58;;;21.70;40.80;;;;;;4996075;28;20042;-71
2022/03/02 06:34:39;;;;;;;5.88;3.38;;;21.80;39.40;;;;;;4995651;28;20098;-71
2022/03/02 06:37:06;;;;;;;6.28;4.05;;;21.90;40.40;;;;;;4999538;28;20430;-70
2022/03/02 06:39:32;;;;;;;4.35;3.60;;;21.90;39.50;;;;;;5002027;28;20042;-72
2022/03/02 06:42:16;;;;;;;7.28;4.43;;;22.10;41.60;;;;;;5003967;28;20050;-71
2022/03/02 06:44:59;;;;;;;10.13;6.82;;;22.10;39.10;;;;;;4995587;28;20092;-71
2022/03/02 06:47:29;;;;;;;5.45;3.65;;;22.10;39.20;;;;;;4996665;28;20047;-71
2022/03/02 06:50:06;;;;;;;10.80;6.43;;;22.20;40.90;;;;;;4997102;28;20102;-71
2022/03/02 06:52:54;;;;;;;8.73;6.63;;;22.20;39.20;;;;;;4999310;28;20047;-71
2022/03/02 06:55:21;;;;;;;4.45;3.20;;;22.30;38.80;;;;;;4993935;28;20049;-70
2022/03/02 06:57:56;;;;;;;10.05;5.55;;;22.40;39.40;;;;;;4996462;28;20043;-72
2022/03/02 07:00:23;;;;;;;10.98;7.07;;;22.30;39.50;;;;;;4996115;28;20104;-71
2022/03/02 07:03:09;;;;;;;7.80;5.78;;;22.40;41.80;;;;;;5008455;28;20038;-71
2022/03/02 07:05:36;;;;;;;5.85;4.38;;;22.30;39.50;;;;;;4992124;28;20047;-71
2022/03/02 07:08:04;;;;;;;11.98;6.70;;;22.40;43.40;;;;;;4997417;28;20052;-72
2022/03/02 07:10:36;;;;;;;12.63;8.00;;;22.60;53.90;;;;;;4996460;28;20052;-71
2022/03/02 07:13:05;;;;;;;9.88;6.32;;;22.50;52.30;;;;;;5000955;28;20030;-72
2022/03/02 07:15:33;;;;;;;10.25;6.93;;;22.60;54.50;;;;;;4988574;28;20127;-71
2022/03/02 07:18:00;;;;;;;13.30;7.10;;;22.50;55.60;;;;;;5015611;28;20050;-71
2022/03/02 07:20:27;;;;;;;10.23;6.75;;;22.50;56.50;;;;;;5013871;28;20034;-71
2022/03/02 07:22:55;;;;;;;10.45;6.93;;;22.30;57.00;;;;;;5013759;28;20063;-72
2022/03/02 07:25:29;;;;;;;12.68;7.28;;;22.40;57.10;;;;;;5015628;28;20060;-71
2022/03/02 07:28:00;;;;;;;10.02;6.57;;;22.20;57.30;;;;;;5012264;28;20061;-71
2022/03/02 07:30:27;;;;;;;11.63;7.32;;;22.30;58.00;;;;;;5002983;28;20050;-70
2022/03/02 07:32:56;;;;;;;11.80;7.32;;;22.20;57.70;;;;;;4995897;28;20047;-71
2022/03/02 07:35:24;;;;;;;10.18;6.53;;;22.30;58.10;;;;;;4998274;28;20031;-71
2022/03/02 07:37:53;;;;;;;13.45;7.78;;;22.10;58.50;;;;;;5000568;28;20066;-72
2022/03/02 07:40:20;;;;;;;12.75;7.75;;;22.20;58.10;;;;;;5001380;28;20127;-69
2022/03/02 07:42:46;;;;;;;12.50;7.43;;;22.10;58.30;;;;;;4999565;28;20118;-71
2022/03/02 07:45:12;;;;;;;12.38;7.22;;;22.10;58.70;;;;;;5004292;28;20054;-72
2022/03/02 07:47:38;;;;;;;9.73;5.80;;;22.00;59.10;;;;;;4999487;28;20077;-69
2022/03/02 07:50:07;;;;;;;10.27;5.82;;;22.10;47.60;;;;;;4998892;28;20038;-70
2022/03/02 07:52:37;;;;;;;4.88;3.50;;;22.20;44.10;;;;;;5008575;28;20038;-70
2022/03/02 07:55:09;;;;;;;9.30;2.85;;;22.50;44.80;;;;;;5019325;28;20068;-70
2022/03/02 07:57:38;;;;;;;8.93;3.30;;;22.50;42.00;;;;;;5008834;28;20046;-71
2022/03/02 08:00:09;;;;;;;5.93;3.83;;;22.70;44.00;;;;;;4999479;28;20049;-72
2022/03/02 08:02:37;;;;;;;5.63;3.55;;;22.70;42.00;;;;;;4998504;28;20054;-73
2022/03/02 08:05:05;;;;;;;17.42;7.82;;;22.70;41.10;;;;;;4998015;28;20062;-74
2022/03/02 08:07:31;;;;;;;15.43;7.97;;;22.70;53.10;;;;;;5000919;28;20046;-73
2022/03/02 08:09:58;;;;;;;12.85;7.68;;;22.80;53.80;;;;;;4998540;28;20049;-71
2022/03/02 08:12:24;;;;;;;10.35;6.88;;;22.80;54.00;;;;;;4999758;28;20103;-71
2022/03/02 08:14:51;;;;;;;11.88;7.63;;;22.60;54.30;;;;;;4999574;28;20039;-72
2022/03/02 08:17:19;;;;;;;10.77;6.25;;;22.60;55.30;;;;;;4999715;28;20049;-72
2022/03/02 08:19:46;;;;;;;12.35;7.15;;;22.60;56.10;;;;;;4999533;28;20046;-71
2022/03/02 08:22:19;;;;;;;14.40;6.95;;;22.50;56.40;;;;;;4998438;28;20074;-72
2022/03/02 08:24:46;;;;;;;;;;;22.40;56.80;;;;;;5007098;28;20082;-71
2022/03/02 08:27:14;;;;;;;11.55;6.97;;;22.40;56.50;;;;;;4998983;28;19913;-72
2022/03/02 08:29:40;;;;;;;10.65;7.18;;;22.40;56.30;;;;;;4998817;28;20042;-72
2022/03/02 08:32:08;;;;;;;15.35;8.15;;;22.30;56.60;;;;;;4998452;28;20047;-72
2022/03/02 08:34:34;;;;;;;13.48;7.82;;;22.40;56.40;;;;;;4998719;28;20054;-73
2022/03/02 08:37:01;;;;;;;12.95;7.10;;;22.30;56.60;;;;;;5000279;28;20053;-72
2022/03/02 08:39:28;;;;;;;10.15;6.93;;;22.30;56.50;;;;;;4997859;28;20043;-73
2022/03/02 08:41:55;;;;;;;9.48;5.78;;;22.40;57.50;;;;;;5007666;28;20053;-72
2022/03/02 08:44:22;;;;;;;14.20;6.35;;;22.40;57.40;;;;;;5000688;28;20202;-73
2022/03/02 08:46:48;;;;;;;10.15;6.05;;;22.50;56.90;;;;;;4998521;28;20055;-72
2022/03/02 08:49:16;;;;;;;9.45;6.65;;;22.60;56.30;;;;;;4997919;28;20053;-73
2022/03/02 08:51:43;;;;;;;11.13;6.55;;;22.50;55.80;;;;;;5000101;28;20035;-73
2022/03/02 08:54:13;;;;;;;11.30;7.22;;;22.40;56.60;;;;;;4998600;28;20041;-73
2022/03/02 08:56:41;;;;;;;10.63;6.25;;;22.50;56.60;;;;;;4999215;28;20058;-74
2022/03/02 08:59:12;;;;;;;11.93;6.05;;;22.30;56.90;;;;;;4998803;28;20046;-73
2022/03/02 09:01:42;;;;;;;9.48;5.72;;;22.30;56.80;;;;;;4998726;28;20047;-72
2022/03/02 09:04:15;;;;;;;9.80;5.13;;;22.40;56.70;;;;;;4999224;28;20090;-73
2022/03/02 09:06:43;;;;;;;9.25;6.47;;;22.30;56.60;;;;;;5001060;28;20050;-73
2022/03/02 09:09:09;;;;;;;11.20;6.65;;;22.50;56.20;;;;;;5016672;28;20030;-73
2022/03/02 09:11:38;;;;;;;9.52;6.60;;;22.50;56.00;;;;;;5017189;28;20034;-73
2022/03/02 09:14:04;;;;;;;9.43;6.78;;;22.40;56.30;;;;;;5017597;28;20026;-73
2022/03/02 09:16:30;;;;;;;10.63;6.65;;;22.30;56.30;;;;;;5018432;28;20102;-73
2022/03/02 09:18:56;;;;;;;18.05;8.02;;;22.10;56.70;;;;;;5018374;28;20054;-73
2022/03/02 09:21:25;;;;;;;8.85;6.07;;;22.10;56.90;;;;;;5015201;28;20038;-73
2022/03/02 09:23:54;;;;;;;10.00;6.32;;;22.00;56.70;;;;;;5016838;28;20135;-72
2022/03/02 09:26:21;;;;;;;7.55;5.68;;;22.10;57.00;;;;;;5018200;28;20053;-73
2022/03/02 09:28:53;;;;;;;10.73;6.47;;;22.00;57.20;;;;;;5018122;28;20570;-73
2022/03/02 09:31:22;;;;;;;9.57;6.70;;;21.90;56.90;;;;;;5018047;28;20044;-73
2022/03/02 09:33:58;;;;;;;10.23;6.80;;;21.90;56.80;;;;;;5018211;28;20034;-72
2022/03/02 09:36:26;;;;;;;10.93;6.20;;;22.00;56.90;;;;;;5015385;28;20046;-73
2022/03/02 09:38:53;;;;;;;8.73;6.45;;;21.90;57.20;;;;;;4998446;28;20109;-73
2022/03/02 09:41:49;;;;;;;10.82;6.75;;;21.90;57.10;;;;;;5005215;28;20399;-73
2022/03/02 09:44:21;;;;;;;10.82;6.53;;;22.00;56.80;;;;;;5013869;28;20098;-73
2022/03/02 09:46:51;;;;;;;10.18;6.40;;;22.00;57.00;;;;;;5017602;28;20054;-73
2022/03/02 09:49:21;;;;;;;6.03;4.15;;;22.10;56.30;;;;;;4997258;28;20070;-77
2022/03/02 09:52:08;;;;;;;7.45;4.78;;;21.90;56.90;;;;;;4997792;28;20039;-79
2022/03/02 09:54:39;;;;;;;4.63;3.25;;;22.10;56.10;;;;;;4997477;28;20042;-79
2022/03/02 09:57:07;;;;;;;8.80;5.75;;;22.20;53.40;;;;;;4978534;28;20107;-80
2022/03/02 09:59:40;;;;;;;6.75;4.03;;;22.40;50.70;;;;;;4999745;28;20061;-79
2022/03/02 10:02:08;;;;;;;8.68;6.18;;;22.40;48.80;;;;;;5009158;28;20042;-79
2022/03/02 10:04:35;;;;;;;7.55;5.15;;;22.40;47.10;;;;;;4995907;28;20061;-78
2022/03/02 10:10:02;;;;;;;8.88;5.53;;;22.40;46.20;;;;;;4998146;28;20035;-77
2022/03/02 10:12:34;;;;;;;7.50;5.05;;;22.50;46.30;;;;;;4997855;28;20046;-73
2022/03/02 10:15:01;;;;;;;7.60;5.75;;;22.40;43.60;;;;;;5003893;28;20086;-73
2022/03/02 10:17:37;;;;;;;11.02;6.63;;;22.10;41.70;;;;;;4998408;28;20053;-72
2022/03/02 10:20:07;;;;;;;10.00;6.35;;;22.10;44.40;;;;;;4997074;28;20098;-72
2022/03/02 10:23:10;;;;;;;10.32;5.63;;;21.90;45.00;;;;;;4997558;28;20046;-72
2022/03/02 10:25:49;;;;;;;8.13;5.80;;;21.90;46.40;;;;;;4990989;28;20061;-73
2022/03/02 10:28:26;;;;;;;7.68;5.97;;;21.80;47.00;;;;;;4996419;28;20053;-73
2022/03/02 10:31:13;;;;;;;7.47;6.00;;;21.80;47.70;;;;;;5001390;28;20038;-69
2022/03/02 10:33:46;;;;;;;7.65;4.70;;;21.80;47.20;;;;;;4996754;28;20038;-69
2022/03/02 10:36:12;;;;;;;12.07;5.97;;;21.70;48.60;;;;;;5001059;28;20034;-70
2022/03/02 10:38:38;;;;;;;9.68;6.50;;;21.80;48.40;;;;;;4996178;28;20035;-69
2022/03/02 10:41:08;;;;;;;7.25;5.18;;;21.80;49.00;;;;;;5007131;28;20049;-70
2022/03/02 10:43:49;;;;;;;9.80;5.47;;;21.90;49.50;;;;;;4996927;28;20042;-69
2022/03/02 10:46:20;;;;;;;3.83;2.72;;;21.80;49.70;;;;;;4996268;28;20767;-71
2022/03/02 10:49:14;;;;;;;6.57;4.05;;;21.90;49.00;;;;;;4995974;28;20043;-70
2022/03/02 10:51:43;;;;;;;8.25;3.92;;;22.10;43.20;;;;;;4998778;28;20033;-70
2022/03/02 10:54:14;;;;;;;11.05;4.60;;;22.10;43.00;;;;;;4996703;28;20039;-70
2022/03/02 10:56:42;;;;;;;4.18;3.22;;;22.20;39.70;;;;;;4980686;28;20038;-70
2022/03/02 10:59:16;;;;;;;7.65;4.57;;;22.30;41.00;;;;;;4994608;28;20143;-69
2022/03/02 11:01:45;;;;;;;3.92;3.00;;;22.30;40.30;;;;;;4996432;28;20050;-69
2022/03/02 11:04:12;;;;;;;5.50;3.55;;;22.50;43.30;;;;;;4995715;28;20041;-69
2022/03/02 11:06:38;;;;;;;5.18;3.28;;;22.70;40.80;;;;;;4997513;28;20066;-70
2022/03/02 11:09:05;;;;;;;7.30;3.47;;;22.90;47.60;;;;;;5001955;28;20039;-69
2022/03/02 11:11:38;;;;;;;8.05;4.70;;;23.40;46.50;;;;;;4998065;28;20074;-70
2022/03/02 11:14:08;;;;;;;6.38;3.80;;;23.50;42.80;;;;;;5014424;28;20044;-69
2022/03/02 11:16:34;;;;;;;3.65;3.03;;;23.50;41.30;;;;;;5012489;28;20150;-69
2022/03/02 11:19:15;;;;;;;3.20;2.75;;;23.50;37.50;;;;;;4996395;28;20068;-67
2022/03/02 11:21:44;;;;;;;8.60;5.43;;;23.30;36.60;;;;;;5007776;28;20046;-69
2022/03/02 11:24:17;;;;;;;10.25;5.47;;;23.20;39.50;;;;;;5016066;28;20139;-70
2022/03/02 11:26:44;;;;;;;11.18;6.88;;;23.20;46.10;;;;;;5010029;28;20061;-71
2022/03/02 11:29:17;;;;;;;8.02;5.10;;;23.40;47.00;;;;;;4999241;28;20043;-71
2022/03/02 11:31:46;;;;;;;6.07;4.93;;;23.30;47.30;;;;;;4998084;28;20039;-70
2022/03/02 11:34:42;;;;;;;7.65;5.28;;;23.30;47.50;;;;;;4994434;28;20046;-70
2022/03/02 11:37:08;;;;;;;12.55;6.75;;;23.20;47.90;;;;;;4990743;28;20054;-70
2022/03/02 11:39:42;;;;;;;9.77;6.47;;;23.10;49.10;;;;;;4995087;28;20160;-70
2022/03/02 11:42:09;;;;;;;9.90;6.00;;;22.90;50.20;;;;;;4987649;28;20052;-70
2022/03/02 11:44:38;;;;;;;7.93;5.18;;;22.90;50.50;;;;;;4996776;28;20035;-70
2022/03/02 11:47:09;;;;;;;7.25;5.47;;;22.70;51.10;;;;;;4996332;28;20046;-70
2022/03/02 11:49:38;;;;;;;11.32;5.88;;;22.70;51.60;;;;;;4996265;28;20058;-70
2022/03/02 11:52:06;;;;;;;10.02;5.75;;;22.70;51.60;;;;;;4997257;28;20038;-71
2022/03/02 11:54:43;;;;;;;9.25;6.15;;;22.70;51.90;;;;;;4996591;28;20071;-71
2022/03/02 11:57:10;;;;;;;9.68;5.75;;;22.60;51.90;;;;;;4996433;28;20050;-70
2022/03/02 11:59:38;;;;;;;7.15;4.90;;;22.50;52.20;;;;;;4996368;28;20061;-69
2022/03/02 12:02:19;;;;;;;8.80;5.70;;;22.40;51.60;;;;;;4995887;28;20053;-71
2022/03/02 12:05:10;;;;;;;8.88;5.60;;;22.50;52.40;;;;;;4996298;28;20074;-70
2022/03/02 12:07:38;;;;;;;9.40;5.88;;;22.40;52.60;;;;;;5002050;28;20049;-70
2022/03/02 12:10:14;;;;;;;11.93;6.35;;;22.40;53.10;;;;;;4996103;28;20123;-71
2022/03/02 12:12:41;;;;;;;11.63;6.50;;;22.40;53.20;;;;;;5014220;28;20043;-70
2022/03/02 12:15:07;;;;;;;10.70;6.18;;;22.20;53.40;;;;;;5015961;28;20046;-70
2022/03/02 12:17:36;;;;;;;9.95;6.43;;;22.20;53.80;;;;;;4994524;28;20046;-70
2022/03/02 12:20:16;;;;;;;8.85;5.05;;;22.10;54.40;;;;;;4995343;28;20137;-71
2022/03/02 12:22:48;;;;;;;9.73;5.95;;;22.10;54.20;;;;;;4989784;28;20085;-70
2022/03/02 12:25:17;;;;;;;10.07;5.95;;;22.10;54.50;;;;;;4999578;28;20047;-69
2022/03/02 12:27:58;;;;;;;7.82;5.43;;;22.00;54.40;;;;;;5000799;28;20050;-70
2022/03/02 12:30:28;;;;;;;9.55;6.25;;;22.00;54.20;;;;;;4999031;28;20046;-69
2022/03/02 12:32:54;;;;;;;8.65;5.40;;;22.00;54.20;;;;;;5000107;28;20045;-71
2022/03/02 12:35:24;;;;;;;7.72;5.63;;;22.00;54.10;;;;;;5018515;28;20042;-69
2022/03/02 12:37:57;;;;;;;9.50;5.90;;;22.00;53.10;;;;;;4999873;28;20051;-70
2022/03/02 12:40:26;;;;;;;7.85;5.03;;;22.10;53.80;;;;;;4995293;28;20042;-70
2022/03/02 12:42:54;;;;;;;7.18;5.65;;;22.00;53.90;;;;;;4999564;28;20106;-69
2022/03/02 12:45:20;;;;;;;9.82;6.10;;;22.00;54.00;;;;;;4998958;28;20046;-69
2022/03/02 12:47:47;;;;;;;7.60;5.38;;;22.10;54.00;;;;;;4998693;28;20152;-69
2022/03/02 12:50:16;;;;;;;10.38;6.22;;;21.90;53.80;;;;;;4998162;28;20114;-70
2022/03/02 12:52:44;;;;;;;7.97;5.88;;;22.10;53.80;;;;;;5000015;28;20042;-70
2022/03/02 12:55:11;;;;;;;9.63;6.38;;;22.20;53.80;;;;;;4994172;28;20056;-70